sensor_id;sensor_type;location;lat;lon;timestamp;noise_LAeq;noise_LA_min;noise_LA_max;noise_LA01;noise_LA95
66458;Laerm;56835;52.198;4.826;2023-07-08T00:00:10;50.40;49.11;51.56;;
66458;Laerm;56835;52.198;4.826;2023-07-08T00:00:21;50.39;49.13;51.44;;
66458;Laerm;56835;52.198;4.826;2023-07-08T00:00:31;50.40;48.94;51.80;;
66458;Laerm;56835;52.198;4.826;2023-07-08T00:00:42;50.38;49.16;51.48;;
66458;Laerm;56835;52.198;4.826;2023-07-08T00:00:53;50.45;49.38;51.51;;
66458;Laerm;56835;52.198;4.826;2023-07-08T00:01:07;50.41;49.28;51.48;;
66458;Laerm;56835;52.198;4.826;2023-07-08T00:01:19;50.40;49.28;51.82;;
66458;Laerm;56835;52.198;4.826;2023-07-08T00:01:30;50.36;49.28;52.04;;
66458;Laerm;56835;52.198;4.826;2023-07-08T00:01:40;50.38;49.15;51.69;;
66458;Laerm;56835;52.198;4.826;2023-07-08T00:01:50;50.40;49.17;51.76;;
66458;Laerm;56835;52.198;4.826;2023-07-08T00:02:01;50.40;49.32;51.37;;
66458;Laerm;56835;52.198;4.826;2023-07-08T00:02:11;50.42;49.36;51.60;;
66458;Laerm;56835;52.198;4.826;2023-07-08T00:02:22;50.38;49.18;51.51;;
66458;Laerm;56835;52.198;4.826;2023-07-08T00:02:32;50.38;49.31;51.64;;
66458;Laerm;56835;52.198;4.826;2023-07-08T00:02:43;50.39;49.29;51.38;;
66458;Laerm;56835;52.198;4.826;2023-07-08T00:02:53;50.39;49.24;51.60;;
66458;Laerm;56835;52.198;4.826;2023-07-08T00:03:03;50.37;49.02;51.31;;
66458;Laerm;56835;52.198;4.826;2023-07-08T00:03:14;50.39;49.24;51.58;;
66458;Laerm;56835;52.198;4.826;2023-07-08T00:03:24;50.39;49.24;51.49;;
66458;Laerm;56835;52.198;4.826;2023-07-08T00:03:34;50.42;49.16;51.63;;
66458;Laerm;56835;52.198;4.826;2023-07-08T00:03:45;50.41;49.06;51.72;;
66458;Laerm;56835;52.198;4.826;2023-07-08T00:03:55;50.42;49.38;51.44;;
66458;Laerm;56835;52.198;4.826;2023-07-08T00:04:05;50.37;49.16;51.59;;
66458;Laerm;56835;52.198;4.826;2023-07-08T00:04:17;50.37;49.39;51.59;;
66458;Laerm;56835;52.198;4.826;2023-07-08T00:04:27;50.34;49.25;51.54;;
66458;Laerm;56835;52.198;4.826;2023-07-08T00:04:38;50.41;48.86;51.66;;
66458;Laerm;56835;52.198;4.826;2023-07-08T00:04:48;50.42;49.08;51.53;;
66458;Laerm;56835;52.198;4.826;2023-07-08T00:04:59;50.41;49.17;51.39;;
66458;Laerm;56835;52.198;4.826;2023-07-08T00:05:12;50.39;49.13;51.63;;
66458;Laerm;56835;52.198;4.826;2023-07-08T00:05:23;50.41;49.46;51.75;;
66458;Laerm;56835;52.198;4.826;2023-07-08T00:05:34;50.41;49.19;51.54;;
66458;Laerm;56835;52.198;4.826;2023-07-08T00:05:45;50.48;49.54;51.41;;
66458;Laerm;56835;52.198;4.826;2023-07-08T00:05:56;50.41;49.34;51.57;;
66458;Laerm;56835;52.198;4.826;2023-07-08T00:06:09;50.43;49.37;51.37;;
66458;Laerm;56835;52.198;4.826;2023-07-08T00:06:22;50.41;49.19;51.95;;
66458;Laerm;56835;52.198;4.826;2023-07-08T00:06:34;50.42;49.28;51.99;;
66458;Laerm;56835;52.198;4.826;2023-07-08T00:06:45;50.40;49.30;51.70;;
66458;Laerm;56835;52.198;4.826;2023-07-08T00:06:56;50.38;49.36;51.27;;
66458;Laerm;56835;52.198;4.826;2023-07-08T00:07:09;50.42;49.40;51.33;;
66458;Laerm;56835;52.198;4.826;2023-07-08T00:07:20;50.42;49.36;51.63;;
66458;Laerm;56835;52.198;4.826;2023-07-08T00:07:31;50.38;49.01;51.73;;
66458;Laerm;56835;52.198;4.826;2023-07-08T00:07:42;50.42;49.04;51.71;;
66458;Laerm;56835;52.198;4.826;2023-07-08T00:07:52;50.40;49.28;51.49;;
66458;Laerm;56835;52.198;4.826;2023-07-08T00:08:03;50.41;49.12;51.78;;
66458;Laerm;56835;52.198;4.826;2023-07-08T00:08:16;50.40;49.35;51.46;;
66458;Laerm;56835;52.198;4.826;2023-07-08T00:08:27;50.40;49.39;51.56;;
66458;Laerm;56835;52.198;4.826;2023-07-08T00:08:37;50.43;49.20;52.15;;
66458;Laerm;56835;52.198;4.826;2023-07-08T00:08:47;50.43;48.83;51.53;;
66458;Laerm;56835;52.198;4.826;2023-07-08T00:08:58;50.41;49.36;51.70;;
66458;Laerm;56835;52.198;4.826;2023-07-08T00:09:10;50.41;49.31;51.65;;
66458;Laerm;56835;52.198;4.826;2023-07-08T00:09:21;50.43;49.16;51.84;;
66458;Laerm;56835;52.198;4.826;2023-07-08T00:09:31;50.44;49.33;51.75;;
66458;Laerm;56835;52.198;4.826;2023-07-08T00:09:42;50.44;49.20;51.65;;
66458;Laerm;56835;52.198;4.826;2023-07-08T00:09:52;50.45;49.18;51.87;;
66458;Laerm;56835;52.198;4.826;2023-07-08T00:10:09;50.41;49.27;51.48;;
66458;Laerm;56835;52.198;4.826;2023-07-08T00:10:21;50.36;48.97;51.55;;
66458;Laerm;56835;52.198;4.826;2023-07-08T00:10:32;50.43;49.05;51.50;;
66458;Laerm;56835;52.198;4.826;2023-07-08T00:10:42;50.41;49.36;51.68;;
66458;Laerm;56835;52.198;4.826;2023-07-08T00:10:53;50.26;49.14;51.36;;
66458;Laerm;56835;52.198;4.826;2023-07-08T00:11:07;50.41;49.42;51.61;;
66458;Laerm;56835;52.198;4.826;2023-07-08T00:11:18;50.43;49.06;51.92;;
66458;Laerm;56835;52.198;4.826;2023-07-08T00:11:28;50.41;49.27;51.79;;
66458;Laerm;56835;52.198;4.826;2023-07-08T00:11:39;50.42;48.68;51.68;;
66458;Laerm;56835;52.198;4.826;2023-07-08T00:11:49;50.43;49.33;51.52;;
66458;Laerm;56835;52.198;4.826;2023-07-08T00:11:59;50.42;49.21;51.90;;
66458;Laerm;56835;52.198;4.826;2023-07-08T00:12:10;50.38;49.18;51.76;;
66458;Laerm;56835;52.198;4.826;2023-07-08T00:12:21;50.42;49.37;52.10;;
66458;Laerm;56835;52.198;4.826;2023-07-08T00:12:31;50.43;49.23;51.56;;
66458;Laerm;56835;52.198;4.826;2023-07-08T00:12:44;50.42;49.38;51.42;;
66458;Laerm;56835;52.198;4.826;2023-07-08T00:12:55;50.42;49.44;51.58;;
66458;Laerm;56835;52.198;4.826;2023-07-08T00:13:07;50.39;49.14;51.68;;
66458;Laerm;56835;52.198;4.826;2023-07-08T00:13:18;50.42;49.31;51.72;;
66458;Laerm;56835;52.198;4.826;2023-07-08T00:13:28;50.41;49.41;51.87;;
66458;Laerm;56835;52.198;4.826;2023-07-08T00:13:39;50.39;49.37;51.51;;
66458;Laerm;56835;52.198;4.826;2023-07-08T00:13:49;50.40;49.35;51.40;;
66458;Laerm;56835;52.198;4.826;2023-07-08T00:13:59;50.38;49.13;51.53;;
66458;Laerm;56835;52.198;4.826;2023-07-08T00:14:09;50.44;49.31;51.61;;
66458;Laerm;56835;52.198;4.826;2023-07-08T00:14:20;50.38;49.25;51.34;;
66458;Laerm;56835;52.198;4.826;2023-07-08T00:14:30;50.42;49.17;51.66;;
66458;Laerm;56835;52.198;4.826;2023-07-08T00:14:40;50.42;49.20;51.43;;
66458;Laerm;56835;52.198;4.826;2023-07-08T00:14:51;50.43;49.50;51.34;;
66458;Laerm;56835;52.198;4.826;2023-07-08T00:15:01;50.38;49.06;51.86;;
66458;Laerm;56835;52.198;4.826;2023-07-08T00:15:11;50.47;49.03;51.71;;
66458;Laerm;56835;52.198;4.826;2023-07-08T00:15:24;50.42;49.25;51.67;;
66458;Laerm;56835;52.198;4.826;2023-07-08T00:15:35;50.40;49.29;51.57;;
66458;Laerm;56835;52.198;4.826;2023-07-08T00:15:46;50.43;49.14;51.64;;
66458;Laerm;56835;52.198;4.826;2023-07-08T00:15:56;50.42;49.08;51.47;;
66458;Laerm;56835;52.198;4.826;2023-07-08T00:16:10;50.39;49.08;51.61;;
66458;Laerm;56835;52.198;4.826;2023-07-08T00:16:23;50.42;49.28;51.95;;
66458;Laerm;56835;52.198;4.826;2023-07-08T00:16:33;50.41;49.31;51.52;;
66458;Laerm;56835;52.198;4.826;2023-07-08T00:16:44;50.43;49.30;51.64;;
66458;Laerm;56835;52.198;4.826;2023-07-08T00:16:55;50.45;49.50;51.48;;
66458;Laerm;56835;52.198;4.826;2023-07-08T00:17:10;50.39;49.27;51.52;;
66458;Laerm;56835;52.198;4.826;2023-07-08T00:17:21;50.42;49.34;51.83;;
66458;Laerm;56835;52.198;4.826;2023-07-08T00:17:31;50.39;49.33;51.97;;
66458;Laerm;56835;52.198;4.826;2023-07-08T00:17:42;50.42;49.12;51.55;;
66458;Laerm;56835;52.198;4.826;2023-07-08T00:17:52;50.41;49.12;51.69;;
66458;Laerm;56835;52.198;4.826;2023-07-08T00:18:13;50.40;48.92;51.60;;
66458;Laerm;56835;52.198;4.826;2023-07-08T00:18:23;50.39;48.97;51.63;;
66458;Laerm;56835;52.198;4.826;2023-07-08T00:18:33;50.48;49.41;51.72;;
66458;Laerm;56835;52.198;4.826;2023-07-08T00:18:44;50.43;49.20;51.49;;
66458;Laerm;56835;52.198;4.826;2023-07-08T00:18:54;50.39;49.57;51.49;;
66458;Laerm;56835;52.198;4.826;2023-07-08T00:19:07;50.44;49.29;51.72;;
66458;Laerm;56835;52.198;4.826;2023-07-08T00:19:18;50.39;49.29;51.81;;
66458;Laerm;56835;52.198;4.826;2023-07-08T00:19:29;50.43;49.29;51.62;;
66458;Laerm;56835;52.198;4.826;2023-07-08T00:19:39;50.43;48.90;51.63;;
66458;Laerm;56835;52.198;4.826;2023-07-08T00:19:50;50.46;49.23;51.93;;
66458;Laerm;56835;52.198;4.826;2023-07-08T00:20:41;50.42;49.28;51.59;;
66458;Laerm;56835;52.198;4.826;2023-07-08T00:20:52;50.44;49.01;51.50;;
66458;Laerm;56835;52.198;4.826;2023-07-08T00:21:02;50.44;49.29;51.43;;
66458;Laerm;56835;52.198;4.826;2023-07-08T00:21:14;50.42;49.25;51.71;;
66458;Laerm;56835;52.198;4.826;2023-07-08T00:21:27;50.46;49.25;51.62;;
66458;Laerm;56835;52.198;4.826;2023-07-08T00:21:38;50.43;49.25;51.76;;
66458;Laerm;56835;52.198;4.826;2023-07-08T00:21:49;50.43;49.45;51.69;;
66458;Laerm;56835;52.198;4.826;2023-07-08T00:22:01;50.45;49.36;51.70;;
66458;Laerm;56835;52.198;4.826;2023-07-08T00:22:12;50.44;49.41;51.75;;
66458;Laerm;56835;52.198;4.826;2023-07-08T00:22:24;50.39;49.23;51.50;;
66458;Laerm;56835;52.198;4.826;2023-07-08T00:22:34;50.45;49.23;51.55;;
66458;Laerm;56835;52.198;4.826;2023-07-08T00:22:46;50.47;49.09;51.56;;
66458;Laerm;56835;52.198;4.826;2023-07-08T00:22:57;50.48;49.30;51.68;;
66458;Laerm;56835;52.198;4.826;2023-07-08T00:23:08;50.42;49.08;51.97;;
66458;Laerm;56835;52.198;4.826;2023-07-08T00:23:18;50.45;49.33;51.53;;
66458;Laerm;56835;52.198;4.826;2023-07-08T00:23:31;50.42;49.18;51.69;;
66458;Laerm;56835;52.198;4.826;2023-07-08T00:23:48;50.47;49.33;51.97;;
66458;Laerm;56835;52.198;4.826;2023-07-08T00:23:59;50.48;49.12;51.68;;
66458;Laerm;56835;52.198;4.826;2023-07-08T00:24:09;50.49;49.32;51.61;;
66458;Laerm;56835;52.198;4.826;2023-07-08T00:24:20;50.43;48.84;51.79;;
66458;Laerm;56835;52.198;4.826;2023-07-08T00:24:30;50.41;49.08;51.92;;
66458;Laerm;56835;52.198;4.826;2023-07-08T00:24:43;50.46;49.48;51.74;;
66458;Laerm;56835;52.198;4.826;2023-07-08T00:24:53;50.42;49.01;51.45;;
66458;Laerm;56835;52.198;4.826;2023-07-08T00:25:04;50.47;49.20;51.86;;
66458;Laerm;56835;52.198;4.826;2023-07-08T00:25:14;50.45;49.27;51.44;;
66458;Laerm;56835;52.198;4.826;2023-07-08T00:25:25;50.43;49.14;52.01;;
66458;Laerm;56835;52.198;4.826;2023-07-08T00:25:35;50.48;49.38;51.54;;
66458;Laerm;56835;52.198;4.826;2023-07-08T00:25:45;50.42;49.41;51.58;;
66458;Laerm;56835;52.198;4.826;2023-07-08T00:25:56;50.39;49.30;51.37;;
66458;Laerm;56835;52.198;4.826;2023-07-08T00:26:10;50.42;49.32;51.59;;
66458;Laerm;56835;52.198;4.826;2023-07-08T00:26:31;50.48;49.42;51.66;;
66458;Laerm;56835;52.198;4.826;2023-07-08T00:26:41;50.48;49.18;51.59;;
66458;Laerm;56835;52.198;4.826;2023-07-08T00:26:51;50.45;48.93;51.89;;
66458;Laerm;56835;52.198;4.826;2023-07-08T00:27:02;50.44;49.30;51.76;;
66458;Laerm;56835;52.198;4.826;2023-07-08T00:27:12;50.45;49.24;51.50;;
66458;Laerm;56835;52.198;4.826;2023-07-08T00:27:25;50.53;49.53;51.75;;
66458;Laerm;56835;52.198;4.826;2023-07-08T00:27:36;50.52;49.44;51.78;;
66458;Laerm;56835;52.198;4.826;2023-07-08T00:27:46;50.48;49.24;51.51;;
66458;Laerm;56835;52.198;4.826;2023-07-08T00:28:00;50.45;49.14;51.70;;
66458;Laerm;56835;52.198;4.826;2023-07-08T00:28:20;50.53;49.31;51.59;;
66458;Laerm;56835;52.198;4.826;2023-07-08T00:28:31;50.42;49.25;51.52;;
66458;Laerm;56835;52.198;4.826;2023-07-08T00:28:41;50.49;49.57;51.88;;
66458;Laerm;56835;52.198;4.826;2023-07-08T00:28:52;50.44;49.43;51.69;;
66458;Laerm;56835;52.198;4.826;2023-07-08T00:29:02;50.50;49.47;51.98;;
66458;Laerm;56835;52.198;4.826;2023-07-08T00:29:13;50.48;49.27;51.77;;
66458;Laerm;56835;52.198;4.826;2023-07-08T00:29:25;50.41;48.93;51.69;;
66458;Laerm;56835;52.198;4.826;2023-07-08T00:29:36;50.49;49.04;51.63;;
66458;Laerm;56835;52.198;4.826;2023-07-08T00:29:46;50.48;48.95;51.66;;
66458;Laerm;56835;52.198;4.826;2023-07-08T00:29:56;50.44;49.19;51.65;;
66458;Laerm;56835;52.198;4.826;2023-07-08T00:30:17;50.44;49.23;51.86;;
66458;Laerm;56835;52.198;4.826;2023-07-08T00:30:29;50.47;49.00;52.23;;
66458;Laerm;56835;52.198;4.826;2023-07-08T00:30:40;50.46;49.35;51.63;;
66458;Laerm;56835;52.198;4.826;2023-07-08T00:30:50;50.46;49.26;51.53;;
66458;Laerm;56835;52.198;4.826;2023-07-08T00:31:04;50.43;49.16;51.60;;
66458;Laerm;56835;52.198;4.826;2023-07-08T00:31:17;50.45;49.33;52.18;;
66458;Laerm;56835;52.198;4.826;2023-07-08T00:31:27;50.46;49.25;51.71;;
66458;Laerm;56835;52.198;4.826;2023-07-08T00:31:37;50.50;49.18;51.88;;
66458;Laerm;56835;52.198;4.826;2023-07-08T00:31:48;50.52;49.19;51.86;;
66458;Laerm;56835;52.198;4.826;2023-07-08T00:31:58;50.46;49.14;51.49;;
66458;Laerm;56835;52.198;4.826;2023-07-08T00:32:09;50.43;49.18;51.66;;
66458;Laerm;56835;52.198;4.826;2023-07-08T00:32:20;50.44;49.27;51.49;;
66458;Laerm;56835;52.198;4.826;2023-07-08T00:32:30;50.47;49.31;51.68;;
66458;Laerm;56835;52.198;4.826;2023-07-08T00:32:40;50.43;49.29;51.69;;
66458;Laerm;56835;52.198;4.826;2023-07-08T00:32:52;50.45;49.37;51.87;;
66458;Laerm;56835;52.198;4.826;2023-07-08T00:33:05;50.48;49.42;51.76;;
66458;Laerm;56835;52.198;4.826;2023-07-08T00:33:16;50.44;49.33;51.71;;
66458;Laerm;56835;52.198;4.826;2023-07-08T00:33:27;50.46;49.40;51.45;;
66458;Laerm;56835;52.198;4.826;2023-07-08T00:33:37;50.42;49.27;51.55;;
66458;Laerm;56835;52.198;4.826;2023-07-08T00:33:48;50.46;49.12;51.72;;
66458;Laerm;56835;52.198;4.826;2023-07-08T00:33:58;50.54;48.98;51.98;;
66458;Laerm;56835;52.198;4.826;2023-07-08T00:34:08;50.55;49.31;51.75;;
66458;Laerm;56835;52.198;4.826;2023-07-08T00:34:18;50.55;49.30;51.80;;
66458;Laerm;56835;52.198;4.826;2023-07-08T00:34:29;50.45;49.57;51.58;;
66458;Laerm;56835;52.198;4.826;2023-07-08T00:34:39;50.42;49.13;51.52;;
66458;Laerm;56835;52.198;4.826;2023-07-08T00:34:49;50.45;49.41;51.50;;
66458;Laerm;56835;52.198;4.826;2023-07-08T00:35:00;50.44;49.42;51.63;;
66458;Laerm;56835;52.198;4.826;2023-07-08T00:35:10;50.46;49.36;51.46;;
66458;Laerm;56835;52.198;4.826;2023-07-08T00:35:21;50.43;49.07;51.85;;
66458;Laerm;56835;52.198;4.826;2023-07-08T00:35:36;50.41;49.29;51.62;;
66458;Laerm;56835;52.198;4.826;2023-07-08T00:35:46;50.44;49.15;51.86;;
66458;Laerm;56835;52.198;4.826;2023-07-08T00:35:56;50.46;49.39;51.48;;
66458;Laerm;56835;52.198;4.826;2023-07-08T00:36:11;50.46;49.36;51.58;;
66458;Laerm;56835;52.198;4.826;2023-07-08T00:36:22;50.49;49.25;51.92;;
66458;Laerm;56835;52.198;4.826;2023-07-08T00:36:33;50.45;49.33;51.68;;
66458;Laerm;56835;52.198;4.826;2023-07-08T00:36:44;50.49;49.45;51.52;;
66458;Laerm;56835;52.198;4.826;2023-07-08T00:36:54;50.41;49.14;51.68;;
66458;Laerm;56835;52.198;4.826;2023-07-08T00:37:04;50.48;49.20;51.55;;
66458;Laerm;56835;52.198;4.826;2023-07-08T00:37:15;50.39;49.07;51.32;;
66458;Laerm;56835;52.198;4.826;2023-07-08T00:37:25;50.47;49.41;51.55;;
66458;Laerm;56835;52.198;4.826;2023-07-08T00:37:39;50.45;49.16;51.95;;
66458;Laerm;56835;52.198;4.826;2023-07-08T00:37:50;50.42;49.51;51.52;;
66458;Laerm;56835;52.198;4.826;2023-07-08T00:38:26;50.44;49.25;51.96;;
66458;Laerm;56835;52.198;4.826;2023-07-08T00:38:37;50.46;49.31;51.66;;
66458;Laerm;56835;52.198;4.826;2023-07-08T00:38:47;50.45;48.98;51.66;;
66458;Laerm;56835;52.198;4.826;2023-07-08T00:38:57;50.50;49.35;51.58;;
66458;Laerm;56835;52.198;4.826;2023-07-08T00:39:12;50.50;49.19;51.68;;
66458;Laerm;56835;52.198;4.826;2023-07-08T00:39:23;50.42;49.21;51.64;;
66458;Laerm;56835;52.198;4.826;2023-07-08T00:39:34;50.49;49.45;51.46;;
66458;Laerm;56835;52.198;4.826;2023-07-08T00:39:44;50.51;49.27;51.71;;
66458;Laerm;56835;52.198;4.826;2023-07-08T00:39:54;50.46;49.31;51.70;;
66458;Laerm;56835;52.198;4.826;2023-07-08T00:40:15;50.45;49.45;51.38;;
66458;Laerm;56835;52.198;4.826;2023-07-08T00:40:26;50.56;49.38;51.79;;
66458;Laerm;56835;52.198;4.826;2023-07-08T00:40:36;50.57;49.35;52.10;;
66458;Laerm;56835;52.198;4.826;2023-07-08T00:41:06;50.57;49.05;51.68;;
66458;Laerm;56835;52.198;4.826;2023-07-08T00:41:19;50.53;49.45;52.08;;
66458;Laerm;56835;52.198;4.826;2023-07-08T00:41:35;50.47;49.20;51.56;;
66458;Laerm;56835;52.198;4.826;2023-07-08T00:41:48;50.51;49.28;51.56;;
66458;Laerm;56835;52.198;4.826;2023-07-08T00:42:02;50.52;49.35;51.69;;
66458;Laerm;56835;52.198;4.826;2023-07-08T00:42:18;50.50;49.06;52.25;;
66458;Laerm;56835;52.198;4.826;2023-07-08T00:42:29;50.54;49.29;51.80;;
66458;Laerm;56835;52.198;4.826;2023-07-08T00:42:39;50.53;49.21;51.78;;
66458;Laerm;56835;52.198;4.826;2023-07-08T00:42:50;50.52;49.44;51.59;;
66458;Laerm;56835;52.198;4.826;2023-07-08T00:43:02;50.51;49.32;51.76;;
66458;Laerm;56835;52.198;4.826;2023-07-08T00:43:15;50.54;49.42;51.90;;
66458;Laerm;56835;52.198;4.826;2023-07-08T00:43:37;50.54;49.41;51.72;;
66458;Laerm;56835;52.198;4.826;2023-07-08T00:43:49;50.53;49.22;51.76;;
66458;Laerm;56835;52.198;4.826;2023-07-08T00:44:00;50.57;49.44;52.07;;
66458;Laerm;56835;52.198;4.826;2023-07-08T00:44:11;50.56;48.97;51.71;;
66458;Laerm;56835;52.198;4.826;2023-07-08T00:44:21;50.53;49.56;51.68;;
66458;Laerm;56835;52.198;4.826;2023-07-08T00:44:32;50.55;49.50;51.76;;
66458;Laerm;56835;52.198;4.826;2023-07-08T00:44:42;50.64;49.60;52.06;;
66458;Laerm;56835;52.198;4.826;2023-07-08T00:44:53;50.68;49.62;51.89;;
66458;Laerm;56835;52.198;4.826;2023-07-08T00:45:09;50.60;49.28;51.84;;
66458;Laerm;56835;52.198;4.826;2023-07-08T00:45:29;50.60;49.43;52.08;;
66458;Laerm;56835;52.198;4.826;2023-07-08T00:45:42;50.58;49.16;51.89;;
66458;Laerm;56835;52.198;4.826;2023-07-08T00:45:57;50.49;49.40;51.54;;
66458;Laerm;56835;52.198;4.826;2023-07-08T00:46:31;50.58;49.32;51.85;;
66458;Laerm;56835;52.198;4.826;2023-07-08T00:46:49;50.58;49.19;51.99;;
66458;Laerm;56835;52.198;4.826;2023-07-08T00:47:04;50.63;49.45;51.75;;
66458;Laerm;56835;52.198;4.826;2023-07-08T00:47:15;50.66;49.48;51.93;;
66458;Laerm;56835;52.198;4.826;2023-07-08T00:47:26;50.65;49.14;52.05;;
66458;Laerm;56835;52.198;4.826;2023-07-08T00:47:36;50.68;49.62;51.72;;
66458;Laerm;56835;52.198;4.826;2023-07-08T00:47:47;50.69;49.49;51.93;;
66458;Laerm;56835;52.198;4.826;2023-07-08T00:48:02;50.68;49.55;51.96;;
66458;Laerm;56835;52.198;4.826;2023-07-08T00:48:19;50.67;49.18;51.84;;
66458;Laerm;56835;52.198;4.826;2023-07-08T00:48:33;50.68;49.54;52.15;;
66458;Laerm;56835;52.198;4.826;2023-07-08T00:48:44;50.66;49.49;52.10;;
66458;Laerm;56835;52.198;4.826;2023-07-08T00:49:23;50.65;49.31;51.73;;
66458;Laerm;56835;52.198;4.826;2023-07-08T00:49:48;50.69;49.17;52.08;;
66458;Laerm;56835;52.198;4.826;2023-07-08T00:50:02;50.67;49.33;52.16;;
66458;Laerm;56835;52.198;4.826;2023-07-08T00:50:13;50.66;49.42;51.80;;
66458;Laerm;56835;52.198;4.826;2023-07-08T00:50:24;50.60;49.24;52.03;;
66458;Laerm;56835;52.198;4.826;2023-07-08T00:50:34;50.68;49.30;51.79;;
66458;Laerm;56835;52.198;4.826;2023-07-08T00:50:44;50.69;49.38;51.63;;
66458;Laerm;56835;52.198;4.826;2023-07-08T00:50:55;50.70;49.46;51.95;;
66458;Laerm;56835;52.198;4.826;2023-07-08T00:51:08;50.65;49.56;52.03;;
66458;Laerm;56835;52.198;4.826;2023-07-08T00:51:20;50.74;49.36;51.83;;
66458;Laerm;56835;52.198;4.826;2023-07-08T00:51:33;50.65;49.55;52.44;;
66458;Laerm;56835;52.198;4.826;2023-07-08T00:51:43;50.71;49.58;51.73;;
66458;Laerm;56835;52.198;4.826;2023-07-08T00:51:54;50.71;49.50;51.73;;
66458;Laerm;56835;52.198;4.826;2023-07-08T00:52:47;50.78;49.32;52.34;;
66458;Laerm;56835;52.198;4.826;2023-07-08T00:53:46;50.69;49.36;52.12;;
66458;Laerm;56835;52.198;4.826;2023-07-08T00:53:56;50.68;49.48;52.00;;
66458;Laerm;56835;52.198;4.826;2023-07-08T00:54:13;50.70;49.61;51.68;;
66458;Laerm;56835;52.198;4.826;2023-07-08T00:54:24;50.67;49.29;51.87;;
66458;Laerm;56835;52.198;4.826;2023-07-08T00:54:34;50.64;49.48;51.87;;
66458;Laerm;56835;52.198;4.826;2023-07-08T00:54:44;50.69;49.48;51.97;;
66458;Laerm;56835;52.198;4.826;2023-07-08T00:54:56;50.65;49.37;51.79;;
66458;Laerm;56835;52.198;4.826;2023-07-08T00:55:07;50.68;49.58;52.09;;
66458;Laerm;56835;52.198;4.826;2023-07-08T00:55:19;50.71;49.34;52.02;;
66458;Laerm;56835;52.198;4.826;2023-07-08T00:55:29;50.66;49.37;51.93;;
66458;Laerm;56835;52.198;4.826;2023-07-08T00:55:39;50.65;49.56;52.11;;
66458;Laerm;56835;52.198;4.826;2023-07-08T00:55:50;50.66;49.68;51.91;;
66458;Laerm;56835;52.198;4.826;2023-07-08T00:56:22;50.72;49.58;51.72;;
66458;Laerm;56835;52.198;4.826;2023-07-08T00:56:54;50.62;49.42;51.60;;
66458;Laerm;56835;52.198;4.826;2023-07-08T00:57:05;50.68;49.20;51.82;;
66458;Laerm;56835;52.198;4.826;2023-07-08T00:57:16;50.70;49.48;51.97;;
66458;Laerm;56835;52.198;4.826;2023-07-08T00:57:27;50.69;49.52;51.79;;
66458;Laerm;56835;52.198;4.826;2023-07-08T00:57:40;50.63;49.46;51.93;;
66458;Laerm;56835;52.198;4.826;2023-07-08T00:57:53;50.68;49.27;51.86;;
66458;Laerm;56835;52.198;4.826;2023-07-08T00:58:03;50.70;49.67;52.33;;
66458;Laerm;56835;52.198;4.826;2023-07-08T00:58:15;50.67;49.66;52.03;;
66458;Laerm;56835;52.198;4.826;2023-07-08T00:58:29;50.64;49.54;51.70;;
66458;Laerm;56835;52.198;4.826;2023-07-08T00:58:45;50.68;49.29;51.98;;
66458;Laerm;56835;52.198;4.826;2023-07-08T00:58:59;50.75;49.47;52.06;;
66458;Laerm;56835;52.198;4.826;2023-07-08T00:59:12;50.68;49.38;52.10;;
66458;Laerm;56835;52.198;4.826;2023-07-08T01:00:15;50.65;49.22;52.37;;
66458;Laerm;56835;52.198;4.826;2023-07-08T01:00:26;50.67;49.53;52.13;;
66458;Laerm;56835;52.198;4.826;2023-07-08T01:00:37;50.68;49.46;52.06;;
66458;Laerm;56835;52.198;4.826;2023-07-08T01:00:48;50.66;49.62;51.94;;
66458;Laerm;56835;52.198;4.826;2023-07-08T01:01:00;50.61;49.34;51.88;;
66458;Laerm;56835;52.198;4.826;2023-07-08T01:01:10;50.68;49.54;51.64;;
66458;Laerm;56835;52.198;4.826;2023-07-08T01:01:21;50.62;49.31;52.01;;
66458;Laerm;56835;52.198;4.826;2023-07-08T01:01:32;50.66;49.49;52.23;;
66458;Laerm;56835;52.198;4.826;2023-07-08T01:01:45;50.68;49.30;52.09;;
66458;Laerm;56835;52.198;4.826;2023-07-08T01:01:56;50.63;49.53;51.60;;
66458;Laerm;56835;52.198;4.826;2023-07-08T01:02:11;50.70;49.13;51.72;;
66458;Laerm;56835;52.198;4.826;2023-07-08T01:02:24;50.63;49.36;51.89;;
66458;Laerm;56835;52.198;4.826;2023-07-08T01:02:36;50.66;49.44;51.93;;
66458;Laerm;56835;52.198;4.826;2023-07-08T01:02:49;50.59;49.15;51.84;;
66458;Laerm;56835;52.198;4.826;2023-07-08T01:03:02;50.63;49.51;51.78;;
66458;Laerm;56835;52.198;4.826;2023-07-08T01:03:13;50.62;49.44;51.78;;
66458;Laerm;56835;52.198;4.826;2023-07-08T01:03:23;50.61;49.49;51.78;;
66458;Laerm;56835;52.198;4.826;2023-07-08T01:03:36;50.67;49.73;51.60;;
66458;Laerm;56835;52.198;4.826;2023-07-08T01:03:54;50.65;49.65;52.08;;
66458;Laerm;56835;52.198;4.826;2023-07-08T01:04:06;50.57;49.22;51.90;;
66458;Laerm;56835;52.198;4.826;2023-07-08T01:04:22;50.65;49.33;51.59;;
66458;Laerm;56835;52.198;4.826;2023-07-08T01:04:35;50.61;49.30;51.84;;
66458;Laerm;56835;52.198;4.826;2023-07-08T01:04:55;50.63;49.42;51.98;;
66458;Laerm;56835;52.198;4.826;2023-07-08T01:05:10;50.64;49.60;51.96;;
66458;Laerm;56835;52.198;4.826;2023-07-08T01:05:22;50.64;49.46;52.16;;
66458;Laerm;56835;52.198;4.826;2023-07-08T01:05:34;50.63;49.46;51.92;;
66458;Laerm;56835;52.198;4.826;2023-07-08T01:05:44;50.62;49.53;51.94;;
66458;Laerm;56835;52.198;4.826;2023-07-08T01:05:56;50.61;49.19;51.69;;
66458;Laerm;56835;52.198;4.826;2023-07-08T01:06:09;50.66;49.48;52.10;;
66458;Laerm;56835;52.198;4.826;2023-07-08T01:06:20;50.65;49.55;51.73;;
66458;Laerm;56835;52.198;4.826;2023-07-08T01:06:32;50.61;49.33;51.64;;
66458;Laerm;56835;52.198;4.826;2023-07-08T01:06:44;50.62;49.35;51.81;;
66458;Laerm;56835;52.198;4.826;2023-07-08T01:06:56;50.64;49.24;51.93;;
66458;Laerm;56835;52.198;4.826;2023-07-08T01:07:07;50.65;49.48;51.96;;
66458;Laerm;56835;52.198;4.826;2023-07-08T01:07:19;50.64;49.47;51.82;;
66458;Laerm;56835;52.198;4.826;2023-07-08T01:07:31;50.64;49.29;51.66;;
66458;Laerm;56835;52.198;4.826;2023-07-08T01:07:44;50.62;49.57;52.17;;
66458;Laerm;56835;52.198;4.826;2023-07-08T01:07:57;50.64;49.25;51.81;;
66458;Laerm;56835;52.198;4.826;2023-07-08T01:08:08;50.64;49.50;52.10;;
66458;Laerm;56835;52.198;4.826;2023-07-08T01:08:19;50.63;49.46;51.82;;
66458;Laerm;56835;52.198;4.826;2023-07-08T01:08:38;50.65;49.50;52.02;;
66458;Laerm;56835;52.198;4.826;2023-07-08T01:08:49;50.50;49.31;51.62;;
66458;Laerm;56835;52.198;4.826;2023-07-08T01:09:03;50.61;49.38;51.68;;
66458;Laerm;56835;52.198;4.826;2023-07-08T01:09:14;50.64;49.34;51.85;;
66458;Laerm;56835;52.198;4.826;2023-07-08T01:09:27;50.68;49.17;51.82;;
66458;Laerm;56835;52.198;4.826;2023-07-08T01:09:43;50.68;49.45;51.85;;
66458;Laerm;56835;52.198;4.826;2023-07-08T01:09:58;50.66;49.57;51.97;;
66458;Laerm;56835;52.198;4.826;2023-07-08T01:10:12;50.63;49.34;51.88;;
66458;Laerm;56835;52.198;4.826;2023-07-08T01:10:27;50.65;49.63;51.76;;
66458;Laerm;56835;52.198;4.826;2023-07-08T01:10:46;50.67;49.28;51.91;;
66458;Laerm;56835;52.198;4.826;2023-07-08T01:11:00;50.52;49.02;52.00;;
66458;Laerm;56835;52.198;4.826;2023-07-08T01:11:11;50.65;49.61;51.65;;
66458;Laerm;56835;52.198;4.826;2023-07-08T01:11:22;50.66;49.48;51.90;;